sensor_id;sensor_type;location;lat;lon;timestamp;temperature;humidity
23079;DHT22;11707;50.830;4.364;2023-07-30T00:02:07;16.70;99.90
23079;DHT22;11707;50.830;4.364;2023-07-30T00:04:34;16.70;99.90
23079;DHT22;11707;50.830;4.364;2023-07-30T00:06:59;16.70;99.90
23079;DHT22;11707;50.830;4.364;2023-07-30T00:09:25;16.80;98.90
23079;DHT22;11707;50.830;4.364;2023-07-30T00:11:53;16.60;99.90
23079;DHT22;11707;50.830;4.364;2023-07-30T00:14:21;16.50;99.90
23079;DHT22;11707;50.830;4.364;2023-07-30T00:16:47;16.50;99.90
23079;DHT22;11707;50.830;4.364;2023-07-30T00:19:12;16.50;99.90
23079;DHT22;11707;50.830;4.364;2023-07-30T00:21:38;16.50;99.90
23079;DHT22;11707;50.830;4.364;2023-07-30T00:24:04;16.40;99.90
23079;DHT22;11707;50.830;4.364;2023-07-30T00:26:29;16.40;99.90
23079;DHT22;11707;50.830;4.364;2023-07-30T00:28:55;16.40;99.90
23079;DHT22;11707;50.830;4.364;2023-07-30T00:31:21;16.40;99.90
23079;DHT22;11707;50.830;4.364;2023-07-30T00:33:49;16.40;99.90
23079;DHT22;11707;50.830;4.364;2023-07-30T00:36:15;16.40;99.90
23079;DHT22;11707;50.830;4.364;2023-07-30T00:38:41;16.30;99.90
23079;DHT22;11707;50.830;4.364;2023-07-30T00:41:09;16.30;99.90
23079;DHT22;11707;50.830;4.364;2023-07-30T00:43:34;16.30;99.90
23079;DHT22;11707;50.830;4.364;2023-07-30T00:46:00;16.30;99.90
23079;DHT22;11707;50.830;4.364;2023-07-30T00:48:26;16.30;99.90
23079;DHT22;11707;50.830;4.364;2023-07-30T00:50:51;16.30;99.90
23079;DHT22;11707;50.830;4.364;2023-07-30T00:53:18;16.40;99.90
23079;DHT22;11707;50.830;4.364;2023-07-30T00:55:46;16.40;99.90
23079;DHT22;11707;50.830;4.364;2023-07-30T00:58:12;16.40;99.90
23079;DHT22;11707;50.830;4.364;2023-07-30T01:00:39;16.40;99.90
23079;DHT22;11707;50.830;4.364;2023-07-30T01:03:05;16.40;99.90
23079;DHT22;11707;50.830;4.364;2023-07-30T01:05:31;16.40;99.90
23079;DHT22;11707;50.830;4.364;2023-07-30T01:07:56;16.50;99.90
23079;DHT22;11707;50.830;4.364;2023-07-30T01:10:22;16.50;99.90
23079;DHT22;11707;50.830;4.364;2023-07-30T01:12:48;16.50;99.90
23079;DHT22;11707;50.830;4.364;2023-07-30T01:15:14;16.50;99.90
23079;DHT22;11707;50.830;4.364;2023-07-30T01:17:41;16.60;99.90
23079;DHT22;11707;50.830;4.364;2023-07-30T01:20:07;16.60;99.90
23079;DHT22;11707;50.830;4.364;2023-07-30T01:22:32;16.60;99.90
23079;DHT22;11707;50.830;4.364;2023-07-30T01:24:58;16.70;99.90
23079;DHT22;11707;50.830;4.364;2023-07-30T01:27:33;16.60;99.90
23079;DHT22;11707;50.830;4.364;2023-07-30T01:32:32;16.60;99.90
23079;DHT22;11707;50.830;4.364;2023-07-30T01:35:01;16.60;99.90
23079;DHT22;11707;50.830;4.364;2023-07-30T01:37:29;16.60;99.90
23079;DHT22;11707;50.830;4.364;2023-07-30T01:39:56;16.60;99.90
23079;DHT22;11707;50.830;4.364;2023-07-30T01:42:28;16.60;99.90
23079;DHT22;11707;50.830;4.364;2023-07-30T01:44:56;16.80;99.90
23079;DHT22;11707;50.830;4.364;2023-07-30T01:47:22;16.90;99.90
23079;DHT22;11707;50.830;4.364;2023-07-30T01:49:48;17.00;99.90
23079;DHT22;11707;50.830;4.364;2023-07-30T01:52:14;16.90;99.90
23079;DHT22;11707;50.830;4.364;2023-07-30T01:54:44;16.90;99.90
23079;DHT22;11707;50.830;4.364;2023-07-30T01:57:10;16.90;99.90
23079;DHT22;11707;50.830;4.364;2023-07-30T01:59:35;16.80;99.90
23079;DHT22;11707;50.830;4.364;2023-07-30T02:02:01;16.70;99.90
23079;DHT22;11707;50.830;4.364;2023-07-30T02:04:27;16.70;99.90
23079;DHT22;11707;50.830;4.364;2023-07-30T02:06:52;16.70;99.90
23079;DHT22;11707;50.830;4.364;2023-07-30T02:09:18;16.70;99.90
23079;DHT22;11707;50.830;4.364;2023-07-30T02:11:44;16.70;99.90
23079;DHT22;11707;50.830;4.364;2023-07-30T02:14:09;16.70;99.90
23079;DHT22;11707;50.830;4.364;2023-07-30T02:16:38;16.70;99.90
23079;DHT22;11707;50.830;4.364;2023-07-30T02:19:04;16.60;99.90
23079;DHT22;11707;50.830;4.364;2023-07-30T02:21:29;16.60;99.90
23079;DHT22;11707;50.830;4.364;2023-07-30T02:23:58;16.60;99.90
23079;DHT22;11707;50.830;4.364;2023-07-30T02:26:24;16.60;99.90
23079;DHT22;11707;50.830;4.364;2023-07-30T02:28:50;16.60;99.90
23079;DHT22;11707;50.830;4.364;2023-07-30T02:31:18;16.60;99.90
23079;DHT22;11707;50.830;4.364;2023-07-30T02:33:43;16.60;99.90
23079;DHT22;11707;50.830;4.364;2023-07-30T02:36:09;16.60;99.90
23079;DHT22;11707;50.830;4.364;2023-07-30T02:38:35;16.50;99.90
23079;DHT22;11707;50.830;4.364;2023-07-30T02:41:03;16.50;99.90
23079;DHT22;11707;50.830;4.364;2023-07-30T02:43:28;16.50;99.90
23079;DHT22;11707;50.830;4.364;2023-07-30T02:45:54;16.50;99.90
23079;DHT22;11707;50.830;4.364;2023-07-30T02:48:20;16.50;99.90
23079;DHT22;11707;50.830;4.364;2023-07-30T02:50:48;16.40;99.90
23079;DHT22;11707;50.830;4.364;2023-07-30T02:53:13;16.40;99.90
23079;DHT22;11707;50.830;4.364;2023-07-30T02:55:39;16.40;99.90
23079;DHT22;11707;50.830;4.364;2023-07-30T02:58:05;16.50;99.90
23079;DHT22;11707;50.830;4.364;2023-07-30T03:00:32;16.40;99.90
23079;DHT22;11707;50.830;4.364;2023-07-30T03:02:58;16.40;99.90
23079;DHT22;11707;50.830;4.364;2023-07-30T03:05:24;16.30;99.90
23079;DHT22;11707;50.830;4.364;2023-07-30T03:07:51;16.40;99.90
23079;DHT22;11707;50.830;4.364;2023-07-30T03:10:17;16.40;99.90
23079;DHT22;11707;50.830;4.364;2023-07-30T03:12:42;16.40;99.90
23079;DHT22;11707;50.830;4.364;2023-07-30T03:15:08;16.40;99.90
23079;DHT22;11707;50.830;4.364;2023-07-30T03:17:34;16.30;99.90
23079;DHT22;11707;50.830;4.364;2023-07-30T03:20:02;16.20;99.90
23079;DHT22;11707;50.830;4.364;2023-07-30T03:22:31;16.20;99.90
23079;DHT22;11707;50.830;4.364;2023-07-30T03:24:57;16.30;99.90
23079;DHT22;11707;50.830;4.364;2023-07-30T03:27:25;16.30;99.90
23079;DHT22;11707;50.830;4.364;2023-07-30T03:29:50;16.20;99.90
23079;DHT22;11707;50.830;4.364;2023-07-30T03:32:16;16.20;99.90
23079;DHT22;11707;50.830;4.364;2023-07-30T03:34:41;16.30;99.90
23079;DHT22;11707;50.830;4.364;2023-07-30T03:37:07;16.40;99.90
23079;DHT22;11707;50.830;4.364;2023-07-30T03:39:35;16.30;99.90
23079;DHT22;11707;50.830;4.364;2023-07-30T03:42:01;16.30;99.90
23079;DHT22;11707;50.830;4.364;2023-07-30T03:44:26;16.30;99.90
23079;DHT22;11707;50.830;4.364;2023-07-30T03:46:52;16.30;99.90
23079;DHT22;11707;50.830;4.364;2023-07-30T03:49:20;16.30;99.90
23079;DHT22;11707;50.830;4.364;2023-07-30T03:51:46;16.20;99.90
23079;DHT22;11707;50.830;4.364;2023-07-30T03:54:12;16.30;99.90
23079;DHT22;11707;50.830;4.364;2023-07-30T03:56:38;16.40;99.90
23079;DHT22;11707;50.830;4.364;2023-07-30T03:59:03;16.30;99.90
23079;DHT22;11707;50.830;4.364;2023-07-30T04:01:29;16.20;99.90
23079;DHT22;11707;50.830;4.364;2023-07-30T04:03:56;16.20;99.90
23079;DHT22;11707;50.830;4.364;2023-07-30T04:06:21;16.20;99.90
23079;DHT22;11707;50.830;4.364;2023-07-30T04:08:47;16.20;99.90
23079;DHT22;11707;50.830;4.364;2023-07-30T04:11:13;16.10;99.90
23079;DHT22;11707;50.830;4.364;2023-07-30T04:13:38;16.00;99.90
23079;DHT22;11707;50.830;4.364;2023-07-30T04:16:04;16.00;99.90
23079;DHT22;11707;50.830;4.364;2023-07-30T04:18:29;16.10;99.90
23079;DHT22;11707;50.830;4.364;2023-07-30T04:20:55;16.00;99.90
23079;DHT22;11707;50.830;4.364;2023-07-30T04:23:21;16.00;99.90
23079;DHT22;11707;50.830;4.364;2023-07-30T04:25:49;16.00;99.90
23079;DHT22;11707;50.830;4.364;2023-07-30T04:28:15;16.00;99.90
23079;DHT22;11707;50.830;4.364;2023-07-30T04:30:41;16.00;99.90
23079;DHT22;11707;50.830;4.364;2023-07-30T04:33:06;15.90;99.90
23079;DHT22;11707;50.830;4.364;2023-07-30T04:35:32;15.80;99.90
23079;DHT22;11707;50.830;4.364;2023-07-30T04:37:58;15.90;99.90
23079;DHT22;11707;50.830;4.364;2023-07-30T04:40:26;15.80;99.90
23079;DHT22;11707;50.830;4.364;2023-07-30T04:42:51;15.80;99.90
23079;DHT22;11707;50.830;4.364;2023-07-30T04:45:18;15.90;99.90
23079;DHT22;11707;50.830;4.364;2023-07-30T04:47:46;15.80;99.90
23079;DHT22;11707;50.830;4.364;2023-07-30T04:50:14;15.80;99.90
23079;DHT22;11707;50.830;4.364;2023-07-30T04:52:40;15.80;99.90
23079;DHT22;11707;50.830;4.364;2023-07-30T04:55:06;15.80;99.90
23079;DHT22;11707;50.830;4.364;2023-07-30T04:57:34;15.70;99.90
23079;DHT22;11707;50.830;4.364;2023-07-30T04:59:59;15.70;99.90
23079;DHT22;11707;50.830;4.364;2023-07-30T05:02:25;15.70;99.90
23079;DHT22;11707;50.830;4.364;2023-07-30T05:04:51;15.70;99.90
23079;DHT22;11707;50.830;4.364;2023-07-30T05:07:16;15.60;99.90
23079;DHT22;11707;50.830;4.364;2023-07-30T05:09:42;15.70;99.90
23079;DHT22;11707;50.830;4.364;2023-07-30T05:12:10;15.70;99.90
23079;DHT22;11707;50.830;4.364;2023-07-30T05:14:38;15.70;99.90
23079;DHT22;11707;50.830;4.364;2023-07-30T05:17:04;15.70;99.90
23079;DHT22;11707;50.830;4.364;2023-07-30T05:19:30;15.70;99.90
23079;DHT22;11707;50.830;4.364;2023-07-30T05:21:55;15.70;99.90
23079;DHT22;11707;50.830;4.364;2023-07-30T05:24:21;15.80;99.90
23079;DHT22;11707;50.830;4.364;2023-07-30T05:26:47;15.80;99.90
23079;DHT22;11707;50.830;4.364;2023-07-30T05:29:15;15.80;99.90
23079;DHT22;11707;50.830;4.364;2023-07-30T05:31:40;15.90;99.90
23079;DHT22;11707;50.830;4.364;2023-07-30T05:34:06;15.90;99.90
23079;DHT22;11707;50.830;4.364;2023-07-30T05:36:34;16.00;99.90
23079;DHT22;11707;50.830;4.364;2023-07-30T05:39:00;15.90;99.90
23079;DHT22;11707;50.830;4.364;2023-07-30T05:41:25;16.10;99.90
23079;DHT22;11707;50.830;4.364;2023-07-30T05:43:53;16.10;99.90
23079;DHT22;11707;50.830;4.364;2023-07-30T05:46:19;16.20;99.90
23079;DHT22;11707;50.830;4.364;2023-07-30T05:48:45;16.30;99.90
23079;DHT22;11707;50.830;4.364;2023-07-30T05:51:11;16.20;99.90
23079;DHT22;11707;50.830;4.364;2023-07-30T05:53:36;16.10;99.90
23079;DHT22;11707;50.830;4.364;2023-07-30T05:56:02;16.10;99.90
23079;DHT22;11707;50.830;4.364;2023-07-30T05:58:28;16.10;99.90
23079;DHT22;11707;50.830;4.364;2023-07-30T06:00:56;16.10;99.90
23079;DHT22;11707;50.830;4.364;2023-07-30T06:03:22;16.20;99.90
23079;DHT22;11707;50.830;4.364;2023-07-30T06:05:47;16.30;99.90
23079;DHT22;11707;50.830;4.364;2023-07-30T06:08:15;16.20;99.90
23079;DHT22;11707;50.830;4.364;2023-07-30T06:10:41;16.20;99.90
23079;DHT22;11707;50.830;4.364;2023-07-30T06:13:09;16.10;99.90
23079;DHT22;11707;50.830;4.364;2023-07-30T06:15:34;16.10;99.90
23079;DHT22;11707;50.830;4.364;2023-07-30T06:18:03;16.10;99.90
23079;DHT22;11707;50.830;4.364;2023-07-30T06:20:29;16.10;99.90
23079;DHT22;11707;50.830;4.364;2023-07-30T06:22:55;16.10;99.90
23079;DHT22;11707;50.830;4.364;2023-07-30T06:25:23;16.10;99.90
23079;DHT22;11707;50.830;4.364;2023-07-30T06:27:48;16.10;99.90
23079;DHT22;11707;50.830;4.364;2023-07-30T06:30:14;16.10;99.90
23079;DHT22;11707;50.830;4.364;2023-07-30T06:32:42;16.10;99.90
23079;DHT22;11707;50.830;4.364;2023-07-30T06:35:08;16.20;99.90
23079;DHT22;11707;50.830;4.364;2023-07-30T06:37:34;16.30;99.90
23079;DHT22;11707;50.830;4.364;2023-07-30T06:39:59;16.40;99.90
23079;DHT22;11707;50.830;4.364;2023-07-30T06:42:25;16.30;99.90
23079;DHT22;11707;50.830;4.364;2023-07-30T06:44:50;16.30;99.90
23079;DHT22;11707;50.830;4.364;2023-07-30T06:47:16;16.30;99.90
23079;DHT22;11707;50.830;4.364;2023-07-30T06:49:42;16.30;99.90
23079;DHT22;11707;50.830;4.364;2023-07-30T06:52:09;16.30;99.90
23079;DHT22;11707;50.830;4.364;2023-07-30T06:54:35;16.30;99.90
23079;DHT22;11707;50.830;4.364;2023-07-30T06:57:03;16.30;99.90
23079;DHT22;11707;50.830;4.364;2023-07-30T06:59:29;16.40;99.90
23079;DHT22;11707;50.830;4.364;2023-07-30T07:01:54;16.40;99.90
23079;DHT22;11707;50.830;4.364;2023-07-30T07:04:20;16.40;99.90
23079;DHT22;11707;50.830;4.364;2023-07-30T07:06:46;16.70;99.90
23079;DHT22;11707;50.830;4.364;2023-07-30T07:09:11;16.60;99.90
23079;DHT22;11707;50.830;4.364;2023-07-30T07:11:39;16.80;99.90
23079;DHT22;11707;50.830;4.364;2023-07-30T07:14:07;16.90;99.90
23079;DHT22;11707;50.830;4.364;2023-07-30T07:16:35;16.90;99.90
23079;DHT22;11707;50.830;4.364;2023-07-30T07:19:01;17.10;99.90
23079;DHT22;11707;50.830;4.364;2023-07-30T07:21:29;17.30;97.40
23079;DHT22;11707;50.830;4.364;2023-07-30T07:23:57;17.20;95.20
23079;DHT22;11707;50.830;4.364;2023-07-30T07:26:23;17.30;94.30
23079;DHT22;11707;50.830;4.364;2023-07-30T07:28:48;17.40;91.40
23079;DHT22;11707;50.830;4.364;2023-07-30T07:31:14;17.50;91.40
23079;DHT22;11707;50.830;4.364;2023-07-30T07:33:44;17.50;91.90
23079;DHT22;11707;50.830;4.364;2023-07-30T07:36:10;17.50;90.20
23079;DHT22;11707;50.830;4.364;2023-07-30T07:38:35;17.60;90.30
23079;DHT22;11707;50.830;4.364;2023-07-30T07:41:01;17.70;72.60
23079;DHT22;11707;50.830;4.364;2023-07-30T07:43:29;17.60;79.00
23079;DHT22;11707;50.830;4.364;2023-07-30T07:45:55;17.80;72.20
23079;DHT22;11707;50.830;4.364;2023-07-30T07:48:21;17.80;74.60
23079;DHT22;11707;50.830;4.364;2023-07-30T07:50:46;17.70;75.10
23079;DHT22;11707;50.830;4.364;2023-07-30T07:53:12;17.70;75.10
23079;DHT22;11707;50.830;4.364;2023-07-30T07:55:38;17.70;78.80
23079;DHT22;11707;50.830;4.364;2023-07-30T07:58:06;17.70;72.80
23079;DHT22;11707;50.830;4.364;2023-07-30T08:00:31;17.70;73.90
23079;DHT22;11707;50.830;4.364;2023-07-30T08:02:59;17.80;73.30
23079;DHT22;11707;50.830;4.364;2023-07-30T08:05:25;18.10;64.10
23079;DHT22;11707;50.830;4.364;2023-07-30T08:07:53;18.20;55.60
23079;DHT22;11707;50.830;4.364;2023-07-30T08:10:19;18.30;53.20
23079;DHT22;11707;50.830;4.364;2023-07-30T08:12:47;18.30;52.60
23079;DHT22;11707;50.830;4.364;2023-07-30T08:15:16;18.20;46.80
23079;DHT22;11707;50.830;4.364;2023-07-30T08:17:42;18.20;44.90
23079;DHT22;11707;50.830;4.364;2023-07-30T08:20:08;18.10;52.70
23079;DHT22;11707;50.830;4.364;2023-07-30T08:22:36;18.20;49.00
23079;DHT22;11707;50.830;4.364;2023-07-30T08:25:02;18.20;45.80
23079;DHT22;11707;50.830;4.364;2023-07-30T08:27:28;18.20;36.40
23079;DHT22;11707;50.830;4.364;2023-07-30T08:29:56;18.10;38.10
23079;DHT22;11707;50.830;4.364;2023-07-30T08:32:24;18.10;46.90
23079;DHT22;11707;50.830;4.364;2023-07-30T08:34:50;18.20;50.80
23079;DHT22;11707;50.830;4.364;2023-07-30T08:37:18;18.20;38.40
23079;DHT22;11707;50.830;4.364;2023-07-30T08:39:44;18.10;48.50
23079;DHT22;11707;50.830;4.364;2023-07-30T08:42:09;18.20;40.70
23079;DHT22;11707;50.830;4.364;2023-07-30T08:44:35;18.40;35.40
23079;DHT22;11707;50.830;4.364;2023-07-30T08:47:01;18.40;28.70
23079;DHT22;11707;50.830;4.364;2023-07-30T08:49:26;18.50;27.40
23079;DHT22;11707;50.830;4.364;2023-07-30T08:52:02;18.40;24.70
23079;DHT22;11707;50.830;4.364;2023-07-30T08:54:31;18.40;26.10
23079;DHT22;11707;50.830;4.364;2023-07-30T08:57:01;18.20;32.70
23079;DHT22;11707;50.830;4.364;2023-07-30T08:59:52;18.20;38.10
23079;DHT22;11707;50.830;4.364;2023-07-30T09:02:30;18.30;34.80
23079;DHT22;11707;50.830;4.364;2023-07-30T09:04:58;18.40;29.60
23079;DHT22;11707;50.830;4.364;2023-07-30T09:07:25;18.30;24.60
23079;DHT22;11707;50.830;4.364;2023-07-30T09:09:51;18.30;14.50
23079;DHT22;11707;50.830;4.364;2023-07-30T09:12:16;18.40;9.00
23079;DHT22;11707;50.830;4.364;2023-07-30T09:14:50;18.40;17.60
23079;DHT22;11707;50.830;4.364;2023-07-30T09:17:19;18.20;37.50
23079;DHT22;11707;50.830;4.364;2023-07-30T09:19:45;18.20;45.80
23079;DHT22;11707;50.830;4.364;2023-07-30T09:24:53;18.00;45.20
23079;DHT22;11707;50.830;4.364;2023-07-30T09:27:23;17.90;51.10
23079;DHT22;11707;50.830;4.364;2023-07-30T09:29:52;18.10;45.10
23079;DHT22;11707;50.830;4.364;2023-07-30T09:32:19;18.20;37.70
23079;DHT22;11707;50.830;4.364;2023-07-30T09:34:45;18.20;34.40
23079;DHT22;11707;50.830;4.364;2023-07-30T09:37:10;18.30;29.20
23079;DHT22;11707;50.830;4.364;2023-07-30T09:39:37;18.30;30.80
23079;DHT22;11707;50.830;4.364;2023-07-30T09:42:03;18.40;26.10
23079;DHT22;11707;50.830;4.364;2023-07-30T09:44:32;18.60;21.50
23079;DHT22;11707;50.830;4.364;2023-07-30T09:47:00;18.50;17.10
23079;DHT22;11707;50.830;4.364;2023-07-30T09:49:30;18.50;11.40
23079;DHT22;11707;50.830;4.364;2023-07-30T09:51:56;18.30;17.70
23079;DHT22;11707;50.830;4.364;2023-07-30T09:54:23;18.20;19.50
23079;DHT22;11707;50.830;4.364;2023-07-30T09:56:49;18.30;22.30
23079;DHT22;11707;50.830;4.364;2023-07-30T09:59:14;18.40;12.30
23079;DHT22;11707;50.830;4.364;2023-07-30T10:01:46;18.40;1.00
23079;DHT22;11707;50.830;4.364;2023-07-30T10:04:15;18.40;1.00
23079;DHT22;11707;50.830;4.364;2023-07-30T10:07:03;18.40;1.00
23079;DHT22;11707;50.830;4.364;2023-07-30T10:09:37;18.40;1.00
23079;DHT22;11707;50.830;4.364;2023-07-30T10:12:10;18.20;48.00
23079;DHT22;11707;50.830;4.364;2023-07-30T10:14:36;17.70;93.80
23079;DHT22;11707;50.830;4.364;2023-07-30T10:17:01;17.40;96.20
23079;DHT22;11707;50.830;4.364;2023-07-30T10:19:28;17.50;94.40
23079;DHT22;11707;50.830;4.364;2023-07-30T10:22:02;17.60;94.00
23079;DHT22;11707;50.830;4.364;2023-07-30T10:25:01;17.70;90.80
23079;DHT22;11707;50.830;4.364;2023-07-30T10:27:41;18.00;77.20
23079;DHT22;11707;50.830;4.364;2023-07-30T10:30:16;18.20;64.90
23079;DHT22;11707;50.830;4.364;2023-07-30T10:33:04;18.40;19.00
23079;DHT22;11707;50.830;4.364;2023-07-30T10:38:16;19.10;1.00
23079;DHT22;11707;50.830;4.364;2023-07-30T10:41:15;19.40;1.00
23079;DHT22;11707;50.830;4.364;2023-07-30T10:43:47;19.40;1.00
23079;DHT22;11707;50.830;4.364;2023-07-30T10:46:15;19.30;1.00
23079;DHT22;11707;50.830;4.364;2023-07-30T10:48:45;18.80;28.60
23079;DHT22;11707;50.830;4.364;2023-07-30T10:51:15;17.90;82.10
23079;DHT22;11707;50.830;4.364;2023-07-30T10:53:46;17.70;92.90
23079;DHT22;11707;50.830;4.364;2023-07-30T10:56:16;17.70;71.60
23079;DHT22;11707;50.830;4.364;2023-07-30T10:58:43;17.90;30.10
23079;DHT22;11707;50.830;4.364;2023-07-30T11:01:09;18.10;32.30
23079;DHT22;11707;50.830;4.364;2023-07-30T11:03:35;18.30;23.50
23079;DHT22;11707;50.830;4.364;2023-07-30T11:06:02;18.40;23.10
23079;DHT22;11707;50.830;4.364;2023-07-30T11:11:09;18.80;23.60
23079;DHT22;11707;50.830;4.364;2023-07-30T11:13:39;19.10;11.80
23079;DHT22;11707;50.830;4.364;2023-07-30T11:16:10;19.20;2.60
23079;DHT22;11707;50.830;4.364;2023-07-30T11:18:37;19.60;3.20
23079;DHT22;11707;50.830;4.364;2023-07-30T11:21:11;19.90;1.00
23079;DHT22;11707;50.830;4.364;2023-07-30T11:23:38;19.90;1.00
23079;DHT22;11707;50.830;4.364;2023-07-30T11:26:07;20.00;99.90
23079;DHT22;11707;50.830;4.364;2023-07-30T11:28:39;20.00;99.90
23079;DHT22;11707;50.830;4.364;2023-07-30T11:31:16;19.90;57.00
23079;DHT22;11707;50.830;4.364;2023-07-30T11:33:45;19.90;1.00
23079;DHT22;11707;50.830;4.364;2023-07-30T11:36:16;20.10;1.00
23079;DHT22;11707;50.830;4.364;2023-07-30T11:38:44;20.20;99.90
23079;DHT22;11707;50.830;4.364;2023-07-30T11:41:13;20.00;99.90
23079;DHT22;11707;50.830;4.364;2023-07-30T11:43:42;20.00;99.90
23079;DHT22;11707;50.830;4.364;2023-07-30T11:46:15;20.10;86.70
23079;DHT22;11707;50.830;4.364;2023-07-30T11:48:43;20.30;1.00
23079;DHT22;11707;50.830;4.364;2023-07-30T11:58:46;21.20;99.90
23079;DHT22;11707;50.830;4.364;2023-07-30T12:01:13;21.30;99.90
23079;DHT22;11707;50.830;4.364;2023-07-30T12:03:39;21.20;99.90
23079;DHT22;11707;50.830;4.364;2023-07-30T12:06:06;21.00;99.90
23079;DHT22;11707;50.830;4.364;2023-07-30T12:08:34;20.90;33.50
23079;DHT22;11707;50.830;4.364;2023-07-30T12:11:03;21.00;1.00
23079;DHT22;11707;50.830;4.364;2023-07-30T12:13:29;21.00;99.90
23079;DHT22;11707;50.830;4.364;2023-07-30T12:15:55;21.10;90.20
23079;DHT22;11707;50.830;4.364;2023-07-30T12:18:22;21.30;99.90
23079;DHT22;11707;50.830;4.364;2023-07-30T12:20:52;21.40;1.00
23079;DHT22;11707;50.830;4.364;2023-07-30T12:23:19;21.50;99.90
23079;DHT22;11707;50.830;4.364;2023-07-30T12:25:46;21.60;99.90
23079;DHT22;11707;50.830;4.364;2023-07-30T12:28:12;21.70;99.90
23079;DHT22;11707;50.830;4.364;2023-07-30T12:30:38;21.50;99.90
23079;DHT22;11707;50.830;4.364;2023-07-30T12:33:04;21.40;28.60
23079;DHT22;11707;50.830;4.364;2023-07-30T12:35:33;21.10;1.00
23079;DHT22;11707;50.830;4.364;2023-07-30T12:37:59;20.90;99.90
23079;DHT22;11707;50.830;4.364;2023-07-30T12:40:25;21.00;99.90
23079;DHT22;11707;50.830;4.364;2023-07-30T12:42:51;21.10;1.00
23079;DHT22;11707;50.830;4.364;2023-07-30T12:45:17;21.10;53.30
23079;DHT22;11707;50.830;4.364;2023-07-30T12:47:44;21.10;99.90
23079;DHT22;11707;50.830;4.364;2023-07-30T12:50:10;21.20;18.00
23079;DHT22;11707;50.830;4.364;2023-07-30T12:52:36;21.40;99.90
23079;DHT22;11707;50.830;4.364;2023-07-30T12:55:02;21.80;99.90
23079;DHT22;11707;50.830;4.364;2023-07-30T12:57:30;22.10;1.00
23079;DHT22;11707;50.830;4.364;2023-07-30T12:59:55;22.10;1.00
23079;DHT22;11707;50.830;4.364;2023-07-30T13:02:24;22.70;99.90
23079;DHT22;11707;50.830;4.364;2023-07-30T13:04:49;23.40;11.20
23079;DHT22;11707;50.830;4.364;2023-07-30T13:07:15;24.00;99.90
23079;DHT22;11707;50.830;4.364;2023-07-30T13:09:40;23.40;99.90
23079;DHT22;11707;50.830;4.364;2023-07-30T13:12:06;23.70;1.00
23079;DHT22;11707;50.830;4.364;2023-07-30T13:14:32;23.60;1.00
23079;DHT22;11707;50.830;4.364;2023-07-30T13:17:00;24.00;99.90
23079;DHT22;11707;50.830;4.364;2023-07-30T13:19:26;23.60;99.90
23079;DHT22;11707;50.830;4.364;2023-07-30T13:21:53;23.50;99.90
23079;DHT22;11707;50.830;4.364;2023-07-30T13:24:19;24.40;99.90
23079;DHT22;11707;50.830;4.364;2023-07-30T13:26:47;24.00;99.90
23079;DHT22;11707;50.830;4.364;2023-07-30T13:29:12;23.40;99.90
23079;DHT22;11707;50.830;4.364;2023-07-30T13:31:38;22.60;1.00
23079;DHT22;11707;50.830;4.364;2023-07-30T13:34:04;22.40;99.90
23079;DHT22;11707;50.830;4.364;2023-07-30T13:36:29;22.20;99.90
23079;DHT22;11707;50.830;4.364;2023-07-30T13:39:03;22.40;97.60
23079;DHT22;11707;50.830;4.364;2023-07-30T13:41:29;23.80;93.80
23079;DHT22;11707;50.830;4.364;2023-07-30T13:43:54;24.80;99.90
23079;DHT22;11707;50.830;4.364;2023-07-30T13:46:22;25.20;1.00
23079;DHT22;11707;50.830;4.364;2023-07-30T13:48:51;25.10;1.00
23079;DHT22;11707;50.830;4.364;2023-07-30T13:51:16;25.60;1.00
23079;DHT22;11707;50.830;4.364;2023-07-30T13:53:42;24.70;1.00
23079;DHT22;11707;50.830;4.364;2023-07-30T13:56:08;23.80;52.40
23079;DHT22;11707;50.830;4.364;2023-07-30T13:58:33;23.00;99.90
23079;DHT22;11707;50.830;4.364;2023-07-30T14:01:01;22.50;24.70
23079;DHT22;11707;50.830;4.364;2023-07-30T14:03:27;22.30;1.00
23079;DHT22;11707;50.830;4.364;2023-07-30T14:05:53;22.70;99.90
23079;DHT22;11707;50.830;4.364;2023-07-30T14:08:19;23.90;99.90
23079;DHT22;11707;50.830;4.364;2023-07-30T14:10:44;24.40;1.00
23079;DHT22;11707;50.830;4.364;2023-07-30T14:13:10;23.50;99.90
23079;DHT22;11707;50.830;4.364;2023-07-30T14:15:38;22.60;99.90
23079;DHT22;11707;50.830;4.364;2023-07-30T14:18:04;22.10;99.90
23079;DHT22;11707;50.830;4.364;2023-07-30T14:20:29;21.80;99.90
23079;DHT22;11707;50.830;4.364;2023-07-30T14:22:55;21.50;99.90
23079;DHT22;11707;50.830;4.364;2023-07-30T14:25:21;21.50;1.00
23079;DHT22;11707;50.830;4.364;2023-07-30T14:27:46;21.40;99.90
23079;DHT22;11707;50.830;4.364;2023-07-30T14:30:12;21.50;99.90
23079;DHT22;11707;50.830;4.364;2023-07-30T14:32:37;21.50;99.90
23079;DHT22;11707;50.830;4.364;2023-07-30T14:35:03;22.80;1.00
23079;DHT22;11707;50.830;4.364;2023-07-30T14:37:29;22.80;99.90
23079;DHT22;11707;50.830;4.364;2023-07-30T14:39:57;22.50;1.00
23079;DHT22;11707;50.830;4.364;2023-07-30T14:42:23;22.30;99.90
23079;DHT22;11707;50.830;4.364;2023-07-30T14:44:48;22.10;99.90
23079;DHT22;11707;50.830;4.364;2023-07-30T14:47:16;22.00;1.00
23079;DHT22;11707;50.830;4.364;2023-07-30T14:49:43;22.00;99.90
23079;DHT22;11707;50.830;4.364;2023-07-30T14:52:10;21.60;99.90
23079;DHT22;11707;50.830;4.364;2023-07-30T14:54:38;21.30;99.90
23079;DHT22;11707;50.830;4.364;2023-07-30T14:57:05;21.20;99.90
23079;DHT22;11707;50.830;4.364;2023-07-30T14:59:30;21.10;99.90
23079;DHT22;11707;50.830;4.364;2023-07-30T15:01:56;21.00;1.00
23079;DHT22;11707;50.830;4.364;2023-07-30T15:04:22;21.00;1.00
23079;DHT22;11707;50.830;4.364;2023-07-30T15:06:50;21.10;99.90
23079;DHT22;11707;50.830;4.364;2023-07-30T15:09:18;21.10;99.90
23079;DHT22;11707;50.830;4.364;2023-07-30T15:11:43;21.10;99.90
23079;DHT22;11707;50.830;4.364;2023-07-30T15:14:09;20.90;1.00
23079;DHT22;11707;50.830;4.364;2023-07-30T15:16:37;20.70;1.00
23079;DHT22;11707;50.830;4.364;2023-07-30T15:19:03;20.50;99.90
23079;DHT22;11707;50.830;4.364;2023-07-30T15:21:30;20.50;99.90
23079;DHT22;11707;50.830;4.364;2023-07-30T15:23:56;20.30;99.90
23079;DHT22;11707;50.830;4.364;2023-07-30T15:26:24;20.20;99.90
23079;DHT22;11707;50.830;4.364;2023-07-30T15:28:53;20.10;99.90
23079;DHT22;11707;50.830;4.364;2023-07-30T15:31:18;20.10;99.90
23079;DHT22;11707;50.830;4.364;2023-07-30T15:33:46;20.00;1.00
23079;DHT22;11707;50.830;4.364;2023-07-30T15:36:16;19.90;1.00
23079;DHT22;11707;50.830;4.364;2023-07-30T15:38:42;19.60;1.00
23079;DHT22;11707;50.830;4.364;2023-07-30T15:41:08;19.10;1.00
23079;DHT22;11707;50.830;4.364;2023-07-30T15:43:34;19.00;6.10
23079;DHT22;11707;50.830;4.364;2023-07-30T15:45:59;19.00;15.60
23079;DHT22;11707;50.830;4.364;2023-07-30T15:48:30;19.10;18.30
23079;DHT22;11707;50.830;4.364;2023-07-30T15:50:56;19.00;14.10